Time;durP1;ratioP1;P1;durP2;ratioP2;P2;SDS_P1;SDS_P2;PMS_P1;PMS_P2;Temp;Humidity;BMP_temperature;BMP_pressure;BME280_temperature;BME280_humidity;BME280_pressure;Samples;Min_cycle;Max_cycle;Signal;HPM_P1;HPM_P2
2022/12/14 00:01:24;;;;;;;70.60;32.08;;;;;;;-7.28;85.33;99985.56;1676064;85;25570;-41
2022/12/14 00:03:52;;;;;;;74.53;34.85;;;;;;;-7.34;85.24;99987.97;1676045;85;25573;-42
2022/12/14 00:06:27;;;;;;;67.10;31.35;;;;;;;-7.40;85.39;99982.70;1676063;85;25570;-42
2022/12/14 00:08:57;;;;;;;73.15;32.53;;;;;;;-7.43;85.47;99990.97;1675023;85;27309;-43
2022/12/14 00:11:26;;;;;;;66.20;31.82;;;;;;;-7.47;85.52;99988.42;1675950;85;25626;-42
2022/12/14 00:13:56;;;;;;;67.95;33.42;;;;;;;-7.48;85.55;99989.45;1676027;85;25463;-42
2022/12/14 00:16:26;;;;;;;71.55;32.03;;;;;;;-7.53;85.51;99985.58;1675477;85;27539;-43
2022/12/14 00:18:55;;;;;;;69.05;32.60;;;;;;;-7.55;85.45;99993.36;1676068;85;25654;-42
2022/12/14 00:21:23;;;;;;;72.03;31.65;;;;;;;-7.57;85.48;99996.70;1675995;85;27336;-42
2022/12/14 00:23:52;;;;;;;71.67;31.55;;;;;;;-7.63;85.40;99992.22;1675945;85;25659;-42
2022/12/14 00:26:23;;;;;;;76.15;33.50;;;;;;;-7.64;85.45;99992.73;1676195;85;25432;-42
2022/12/14 00:28:52;;;;;;;71.60;31.68;;;;;;;-7.68;85.34;99994.11;1675624;85;25472;-42
2022/12/14 00:31:21;;;;;;;68.60;31.17;;;;;;;-7.72;85.25;99989.76;1676193;85;25400;-45
2022/12/14 00:33:49;;;;;;;68.37;30.90;;;;;;;-7.77;85.05;99991.36;1676239;85;27270;-44
2022/12/14 00:36:16;;;;;;;66.67;30.65;;;;;;;-7.82;85.02;99989.83;1675969;85;25730;-43
2022/12/14 00:38:43;;;;;;;68.60;31.07;;;;;;;-7.87;85.06;99988.30;1675991;85;25473;-43
2022/12/14 00:41:11;;;;;;;62.55;30.88;;;;;;;-7.90;85.13;99985.05;1675844;84;25562;-43
2022/12/14 00:43:38;;;;;;;71.45;32.13;;;;;;;-7.93;85.46;99985.44;1676055;85;25658;-42
2022/12/14 00:46:06;;;;;;;80.20;32.73;;;;;;;-7.97;85.23;99990.75;1647478;85;27082;-43
2022/12/14 00:48:33;;;;;;;65.15;30.15;;;;;;;-7.99;85.39;99988.03;1675885;85;25670;-43
2022/12/14 00:51:02;;;;;;;72.92;33.00;;;;;;;-8.01;85.29;99989.54;1675972;85;25522;-43
2022/12/14 00:53:30;;;;;;;64.42;30.37;;;;;;;-8.03;85.20;99990.23;1675947;85;25620;-43
2022/12/14 00:55:56;;;;;;;59.50;29.75;;;;;;;-8.06;85.10;99991.94;1675973;85;25481;-46
2022/12/14 00:58:25;;;;;;;66.80;31.62;;;;;;;-8.09;84.72;99994.94;1675963;85;27396;-42
2022/12/14 01:01:11;;;;;;;69.92;30.52;;;;;;;-8.13;84.71;99989.27;1647333;85;25595;-43
2022/12/14 01:03:37;;;;;;;66.60;30.15;;;;;;;-8.16;84.51;99991.48;1676005;85;25608;-41
2022/12/14 01:06:04;;;;;;;60.95;27.98;;;;;;;-8.21;84.46;99995.18;1676016;85;25418;-43
2022/12/14 01:08:37;;;;;;;65.78;30.52;;;;;;;-8.23;84.23;99990.12;1671489;85;25683;-44
2022/12/14 01:11:09;;;;;;;69.17;28.90;;;;;;;-8.32;84.18;99988.16;1675998;85;28155;-44
2022/12/14 01:13:38;;;;;;;60.50;28.45;;;;;;;-8.34;84.10;99989.34;1675892;85;25672;-43
2022/12/14 01:16:09;;;;;;;63.35;30.30;;;;;;;-8.41;83.92;99984.56;1676076;85;25598;-43
2022/12/14 01:18:38;;;;;;;68.65;30.52;;;;;;;-8.46;84.00;99989.12;1675973;85;25614;-43
2022/12/14 01:21:19;;;;;;;66.28;29.65;;;;;;;-8.51;83.98;99990.16;1676101;85;25476;-43
2022/12/14 01:23:50;;;;;;;64.65;30.97;;;;;;;-8.54;84.17;99988.75;1676025;85;27425;-43
2022/12/14 01:26:18;;;;;;;61.18;28.30;;;;;;;-8.57;84.23;99983.08;1676006;85;25514;-46
2022/12/14 01:28:51;;;;;;;65.35;28.87;;;;;;;-8.61;83.98;99983.97;1676125;85;25393;-46
2022/12/14 01:31:21;;;;;;;66.95;29.98;;;;;;;-8.64;83.85;99979.09;1676084;85;25561;-48
2022/12/14 01:33:48;;;;;;;64.42;29.67;;;;;;;-8.70;83.68;99983.30;1676151;85;25556;-47
2022/12/14 01:36:28;;;;;;;66.12;29.42;;;;;;;-8.75;83.67;99983.54;1676059;85;27301;-47
2022/12/14 01:38:59;;;;;;;58.78;26.62;;;;;;;-8.80;83.59;99978.05;1676096;85;25559;-43
2022/12/14 01:41:36;;;;;;;64.95;28.57;;;;;;;-8.87;83.50;99975.38;1675145;85;25478;-43
2022/12/14 01:44:11;;;;;;;61.45;27.58;;;;;;;-8.92;83.36;99977.75;1661334;86;25658;-43
2022/12/14 01:46:55;;;;;;;58.10;28.35;;;;;;;-9.00;83.22;99981.33;1661306;86;25563;-44
2022/12/14 01:49:33;;;;;;;66.07;27.65;;;;;;;-9.06;83.17;99980.28;1661301;86;27389;-42
2022/12/14 01:52:41;;;;;;;56.88;26.75;;;;;;;-9.13;83.15;99979.90;1661223;86;25637;-43
2022/12/14 01:55:16;;;;;;;62.08;26.87;;;;;;;-9.20;83.25;99978.52;1660415;86;25618;-42
2022/12/14 01:58:15;;;;;;;59.18;25.45;;;;;;;-9.26;82.93;99983.19;1661269;86;25488;-43
2022/12/14 02:00:43;;;;;;;61.10;28.57;;;;;;;-9.36;82.63;99990.07;1661458;86;25549;-45
2022/12/14 02:03:17;;;;;;;66.25;29.42;;;;;;;-9.45;82.55;99983.30;1661435;86;28020;-43
2022/12/14 02:05:47;;;;;;;57.50;27.93;;;;;;;-9.52;82.50;99975.38;1661246;86;25581;-42
2022/12/14 02:08:17;;;;;;;57.58;26.50;;;;;;;-9.59;82.55;99974.50;1661348;86;25519;-43
2022/12/14 02:10:45;;;;;;;62.33;28.27;;;;;;;-9.64;82.70;99976.36;1661271;86;25599;-43
2022/12/14 02:13:17;;;;;;;65.85;29.90;;;;;;;-9.68;82.87;99986.89;1661343;86;25415;-44
2022/12/14 02:15:43;;;;;;;60.60;28.75;;;;;;;-9.71;82.92;99983.84;1660202;86;27409;-44
2022/12/14 02:18:15;;;;;;;70.97;29.63;;;;;;;-9.75;83.09;99978.16;1661223;86;25476;-46
2022/12/14 02:21:23;;;;;;;65.97;28.75;;;;;;;-9.77;83.18;99978.34;1661314;86;25403;-47
2022/12/14 02:24:23;;;;;;;66.67;30.43;;;;;;;-9.79;83.32;99972.48;1661423;86;25571;-46
2022/12/14 02:27:07;;;;;;;58.02;25.82;;;;;;;-9.81;83.27;99975.76;1661292;86;25592;-45
2022/12/14 02:29:59;;;;;;;68.95;29.55;;;;;;;-9.86;82.82;99978.11;1660915;86;27346;-46
2022/12/14 02:33:03;;;;;;;61.60;29.15;;;;;;;-9.89;82.52;99980.29;1661232;86;25454;-46
2022/12/14 02:35:58;;;;;;;64.10;27.35;;;;;;;-9.97;82.27;99976.78;1661002;86;25599;-43
2022/12/14 02:38:33;;;;;;;62.80;28.35;;;;;;;-10.03;82.09;99979.31;1661214;86;25567;-46
2022/12/14 02:41:11;;;;;;;63.00;27.42;;;;;;;-10.13;81.76;99980.89;1661276;86;25471;-44
2022/12/14 02:43:59;;;;;;;66.22;29.05;;;;;;;-10.20;81.90;99985.23;1669298;85;27491;-42
2022/12/14 02:46:40;;;;;;;64.67;29.37;;;;;;;-10.24;82.46;99991.33;1675532;84;25470;-42
2022/12/14 02:49:28;;;;;;;70.08;28.83;;;;;;;-10.29;82.33;99991.56;1676082;85;25553;-43
2022/12/14 02:52:28;;;;;;;59.53;26.35;;;;;;;-10.34;82.53;99990.81;1647505;85;25588;-42
2022/12/14 02:55:12;;;;;;;;;;;;;;;-10.39;82.62;99997.08;1678558;85;25548;-43
2022/12/14 02:57:51;;;;;;;59.35;26.30;;;;;;;-10.41;82.66;99993.84;1648148;87;27310;-43
2022/12/14 03:00:19;;;;;;;69.00;29.98;;;;;;;-10.46;82.79;99994.36;1648256;87;25532;-43
2022/12/14 03:02:48;;;;;;;63.38;28.42;;;;;;;-10.46;83.27;99987.83;1648173;87;25462;-43
2022/12/14 03:05:15;;;;;;;69.77;30.02;;;;;;;-10.44;83.31;99994.98;1648296;87;25708;-44
2022/12/14 03:07:47;;;;;;;72.97;30.90;;;;;;;-10.47;83.26;99992.75;1648176;87;25631;-43
2022/12/14 03:10:36;;;;;;;62.08;28.02;;;;;;;-10.49;82.93;99993.41;1648207;87;29456;-43
2022/12/14 03:13:33;;;;;;;64.95;28.27;;;;;;;-10.51;82.71;100000.63;1648294;87;25692;-43
2022/12/14 03:16:22;;;;;;;66.05;27.22;;;;;;;-10.55;82.39;100000.17;1648197;87;25670;-43
2022/12/14 03:19:04;;;;;;;;;;;;;;;-10.60;82.01;99998.59;1626816;87;25809;-43
2022/12/14 03:21:37;;;;;;;60.52;26.68;;;;;;;-10.66;81.98;99995.87;1648202;87;25656;-43
2022/12/14 03:24:11;;;;;;;59.40;26.93;;;;;;;-10.73;82.04;100003.09;1648208;87;27394;-43
2022/12/14 03:26:48;;;;;;;70.15;29.67;;;;;;;-10.78;81.83;99996.78;1647959;87;27369;-43
2022/12/14 03:29:23;;;;;;;71.35;31.17;;;;;;;-10.82;82.06;99993.72;1647185;87;25657;-44
2022/12/14 03:32:07;;;;;;;69.55;31.82;;;;;;;-10.80;82.83;99993.55;1658767;85;25481;-43
2022/12/14 03:34:42;;;;;;;70.95;30.82;;;;;;;-10.80;82.77;99985.70;1676078;85;25683;-43
2022/12/14 03:37:19;;;;;;;68.67;30.82;;;;;;;-10.84;82.74;99989.17;1675987;85;27467;-43
2022/12/14 03:39:47;;;;;;;75.52;30.52;;;;;;;-10.83;82.83;99996.50;1631115;87;25947;-43
2022/12/14 03:42:48;;;;;;;72.80;30.40;;;;;;;-10.86;82.71;99989.01;1615850;88;25509;-44
2022/12/14 03:45:41;;;;;;;76.55;29.40;;;;;;;-10.87;82.79;99992.63;1576328;91;27476;-43
2022/12/14 03:48:37;;;;;;;74.55;30.30;;;;;;;-10.92;82.62;99991.34;1576734;91;25648;-42
2022/12/14 03:51:12;;;;;;;70.87;29.98;;;;;;;-10.95;82.65;99987.77;1561460;91;27362;-44
2022/12/14 03:54:02;;;;;;;76.30;30.77;;;;;;;-10.95;82.55;99999.52;1561370;91;25592;-44
2022/12/14 03:56:42;;;;;;;78.12;31.65;;;;;;;-10.98;82.67;100001.20;1576491;89;25694;-41
2022/12/14 03:59:26;;;;;;;71.15;30.40;;;;;;;-10.98;82.98;99993.84;1575724;91;27530;-43
2022/12/14 04:02:16;;;;;;;74.80;30.97;;;;;;;-10.99;82.80;99997.46;1576670;91;25653;-43
2022/12/14 04:04:53;;;;;;;75.35;33.58;;;;;;;-10.99;83.06;100001.38;1561434;91;27995;-43
2022/12/14 04:07:43;;;;;;;90.97;34.85;;;;;;;-11.00;82.88;100001.05;1560711;91;25511;-43
2022/12/14 04:18:55;;;;;;;73.35;31.15;;;;;;;-11.12;82.57;100006.67;1573103;91;27717;-44
2022/12/14 04:21:46;;;;;;;66.97;31.57;;;;;;;-11.13;82.72;100001.65;1613000;87;25629;-44
2022/12/14 04:27:29;;;;;;;74.75;32.25;;;;;;;-11.15;82.85;99984.02;1632607;87;25968;-45
2022/12/14 04:29:59;;;;;;;71.55;29.52;;;;;;;-11.16;82.98;99987.63;1632734;87;25503;-44
2022/12/14 04:33:45;;;;;;;67.75;30.80;;;;;;;-11.18;82.77;99980.47;1609680;87;28473;-44
2022/12/14 04:35:40;;;;;;;80.90;32.05;;;;;;;-11.20;82.70;99994.16;1632577;87;25554;-45
2022/12/14 04:38:17;;;;;;;74.07;30.82;;;;;;;-11.27;82.41;99987.05;1632697;87;25589;-44
2022/12/14 04:40:57;;;;;;;73.33;31.52;;;;;;;-11.29;82.39;99992.95;1632641;87;25702;-45
2022/12/14 04:43:29;;;;;;;73.22;30.70;;;;;;;-11.33;82.41;99992.95;1633945;87;25600;-44
2022/12/14 04:46:05;;;;;;;77.42;32.98;;;;;;;-11.35;82.36;100000.66;1660066;84;27339;-46
2022/12/14 04:48:58;;;;;;;79.90;31.93;;;;;;;-11.36;82.53;100000.32;1689021;84;25521;-45
2022/12/14 04:51:42;;;;;;;68.37;29.50;;;;;;;-11.38;82.57;99991.36;1689861;84;25543;-46
2022/12/14 04:54:14;;;;;;;69.50;32.08;;;;;;;-11.36;82.63;99997.71;1690480;84;25627;-43
2022/12/14 04:56:46;;;;;;;72.05;28.98;;;;;;;-11.36;82.52;99999.02;1690628;84;25565;-45
2022/12/14 04:59:13;;;;;;;79.95;30.57;;;;;;;-11.39;82.37;99994.97;1690410;84;27363;-44
2022/12/14 05:01:59;;;;;;;74.03;30.92;;;;;;;-11.41;82.37;99987.78;1690423;84;25553;-44
2022/12/14 05:04:53;;;;;;;73.40;31.70;;;;;;;-11.42;82.44;99989.25;1690048;84;25600;-44
2022/12/14 05:07:26;;;;;;;78.75;30.60;;;;;;;-11.44;82.36;99989.92;1690426;84;25422;-44
2022/12/14 05:10:20;;;;;;;71.17;29.07;;;;;;;-11.49;82.41;99978.69;1677855;85;25468;-43
2022/12/14 05:13:16;;;;;;;70.28;29.18;;;;;;;-11.48;82.55;99979.82;1690659;84;26865;-43
2022/12/14 05:15:50;;;;;;;74.60;29.80;;;;;;;-11.50;82.72;99971.86;1690397;84;27215;-44
2022/12/14 05:18:17;;;;;;;76.77;31.10;;;;;;;-11.51;82.69;99970.22;1690559;84;25391;-44
2022/12/14 05:20:47;;;;;;;72.85;30.97;;;;;;;-11.54;82.48;99974.48;1690368;84;27513;-44
2022/12/14 05:23:14;;;;;;;79.72;30.70;;;;;;;-11.56;82.50;99970.77;1690503;84;25578;-47
2022/12/14 05:25:42;;;;;;;65.45;28.47;;;;;;;-11.57;82.63;99974.34;1690468;84;27594;-43
2022/12/14 05:28:11;;;;;;;74.82;31.80;;;;;;;-11.59;82.36;99971.10;1690365;84;25573;-45
2022/12/14 05:30:39;;;;;;;76.55;30.92;;;;;;;-11.61;82.37;99982.21;1690520;84;25582;-44
2022/12/14 05:33:05;;;;;;;75.03;30.77;;;;;;;-11.65;82.50;99975.19;1690469;84;25586;-43
2022/12/14 05:35:32;;;;;;;74.50;30.25;;;;;;;-11.65;82.50;99978.30;1690508;84;25481;-43
2022/12/14 05:37:58;;;;;;;76.57;31.60;;;;;;;-11.67;82.68;99975.86;1690459;84;27366;-44
2022/12/14 05:40:26;;;;;;;83.72;31.60;;;;;;;-11.65;82.90;99979.61;1690498;84;25431;-44
2022/12/14 05:43:03;;;;;;;72.60;30.95;;;;;;;-11.65;82.80;99977.00;1690451;84;25509;-44
2022/12/14 05:45:31;;;;;;;76.30;31.07;;;;;;;-11.65;82.90;99984.83;1690948;84;25412;-44
2022/12/14 05:47:57;;;;;;;73.80;31.00;;;;;;;-11.63;83.00;99984.66;1691027;84;25400;-44
2022/12/14 05:50:23;;;;;;;76.90;30.80;;;;;;;-11.60;83.24;99996.06;1690989;84;27529;-45
2022/12/14 05:52:54;;;;;;;73.45;33.08;;;;;;;-11.61;83.26;99983.98;1690929;84;25586;-44
2022/12/14 05:55:21;;;;;;;77.70;31.20;;;;;;;-11.60;83.14;99992.15;1691036;84;25660;-44
2022/12/14 05:57:48;;;;;;;72.58;30.27;;;;;;;-11.59;83.13;99992.45;1690993;84;25584;-46
2022/12/14 06:00:16;;;;;;;72.82;30.30;;;;;;;-11.58;83.22;99996.20;1691023;84;25594;-44
2022/12/14 06:02:42;;;;;;;70.55;28.50;;;;;;;-11.59;83.31;99993.28;1691197;84;27341;-44
2022/12/14 06:05:08;;;;;;;72.03;30.17;;;;;;;-11.58;83.35;99998.00;1690905;84;25527;-44
2022/12/14 06:07:35;;;;;;;76.28;29.55;;;;;;;-11.58;83.48;99998.00;1690953;84;25372;-44
2022/12/14 06:10:01;;;;;;;77.30;31.47;;;;;;;-11.56;83.68;99996.03;1691004;84;25459;-44
2022/12/14 06:12:27;;;;;;;73.30;28.73;;;;;;;-11.54;83.68;100009.72;1691012;84;25392;-46
2022/12/14 06:14:53;;;;;;;74.70;29.87;;;;;;;-11.53;83.66;100013.97;1691101;84;27366;-46
2022/12/14 06:17:19;;;;;;;67.27;26.73;;;;;;;-11.52;83.95;100007.27;1691211;84;25491;-46
2022/12/14 06:19:47;;;;;;;63.92;27.95;;;;;;;-11.48;84.16;100011.15;1691150;84;25622;-45
2022/12/14 06:22:15;;;;;;;69.87;28.65;;;;;;;-11.45;84.30;100011.31;1691098;84;26134;-46
2022/12/14 06:24:42;;;;;;;75.08;28.80;;;;;;;-11.43;84.47;100011.95;1691154;84;25605;-49
2022/12/14 06:27:08;;;;;;;76.90;28.77;;;;;;;-11.39;84.88;100015.02;1691122;84;28046;-46
2022/12/14 06:29:34;;;;;;;72.40;28.83;;;;;;;-11.34;85.13;100012.70;1691111;84;25660;-45
2022/12/14 06:32:03;;;;;;;80.30;29.25;;;;;;;-11.28;85.19;100009.41;1691151;84;25513;-50
2022/12/14 06:34:31;;;;;;;80.55;30.90;;;;;;;-11.22;85.40;100012.62;1691355;84;25479;-48
2022/12/14 06:36:57;;;;;;;70.20;30.23;;;;;;;-11.18;85.43;100010.50;1691169;84;25572;-45
2022/12/14 06:39:26;;;;;;;77.32;30.02;;;;;;;-11.13;85.51;100002.45;1691132;84;27320;-45
2022/12/14 06:41:53;;;;;;;76.97;30.43;;;;;;;-11.10;85.53;100006.50;1690951;84;25622;-45
2022/12/14 06:44:20;;;;;;;72.10;31.07;;;;;;;-11.04;85.52;100008.42;1690926;84;25739;-47
2022/12/14 06:46:47;;;;;;;77.00;32.58;;;;;;;-10.99;85.47;100010.52;1691032;84;27570;-45
2022/12/14 06:49:15;;;;;;;73.92;30.15;;;;;;;-10.98;85.31;99997.28;1691088;84;25631;-45
2022/12/14 06:51:44;;;;;;;80.00;30.88;;;;;;;-10.94;85.19;100001.66;1691319;84;28033;-45
2022/12/14 06:54:13;;;;;;;74.60;29.15;;;;;;;-10.93;84.80;100006.72;1690948;84;25784;-45
2022/12/14 06:56:46;;;;;;;81.05;32.05;;;;;;;-10.93;84.78;100001.96;1690756;84;25588;-45
2022/12/14 06:59:15;;;;;;;80.60;31.93;;;;;;;-10.92;84.77;100008.83;1691115;84;25593;-46
2022/12/14 07:01:44;;;;;;;;;;;;;;;-10.91;84.87;100006.05;1693679;84;25613;-46
2022/12/14 07:04:11;;;;;;;72.95;28.23;;;;;;;-10.87;84.86;100007.00;1691280;84;27418;-46
2022/12/14 07:06:41;;;;;;;79.10;31.35;;;;;;;-10.87;84.82;99997.86;1690956;84;25843;-45
2022/12/14 07:09:12;;;;;;;71.40;29.87;;;;;;;-10.83;84.80;100002.53;1691161;84;25620;-45
2022/12/14 07:11:41;;;;;;;78.50;29.75;;;;;;;-10.79;84.78;100001.20;1691023;84;26051;-46
2022/12/14 07:14:09;;;;;;;77.08;31.82;;;;;;;-10.77;84.81;100010.19;1691232;84;26550;-46
2022/12/14 07:16:37;;;;;;;82.20;32.60;;;;;;;-10.74;84.76;99996.77;1691041;84;25792;-45
2022/12/14 07:19:05;;;;;;;78.75;30.32;;;;;;;-10.69;84.90;100008.81;1690930;84;25510;-46
2022/12/14 07:21:33;;;;;;;72.47;30.80;;;;;;;-10.65;84.91;100011.88;1691093;84;25392;-46
2022/12/14 07:24:01;;;;;;;69.80;30.50;;;;;;;-10.64;84.92;100003.86;1691017;84;25423;-46
2022/12/14 07:26:29;;;;;;;69.07;32.67;;;;;;;-10.56;84.95;100009.49;1691402;84;25557;-46
2022/12/14 07:28:59;;;;;;;72.87;32.13;;;;;;;-10.53;84.91;100020.91;1691046;84;27355;-45
2022/12/14 07:31:28;;;;;;;71.53;32.00;;;;;;;-10.50;84.87;100022.34;1690928;84;25443;-46
2022/12/14 07:33:59;;;;;;;83.05;34.13;;;;;;;-10.43;84.86;100020.16;1691219;84;25640;-45
2022/12/14 07:36:31;;;;;;;73.85;30.32;;;;;;;-10.39;84.70;100023.23;1691047;84;25564;-45
2022/12/14 07:38:59;;;;;;;75.47;31.07;;;;;;;-10.37;84.78;100021.23;1691138;84;25500;-47
2022/12/14 07:41:29;;;;;;;78.78;35.03;;;;;;;-10.38;84.69;100023.05;1691119;84;27436;-46
2022/12/14 07:44:00;;;;;;;77.25;31.90;;;;;;;-10.31;85.04;100022.34;1690905;84;25622;-47
2022/12/14 07:46:30;;;;;;;81.80;34.50;;;;;;;-10.21;85.60;100019.74;1691128;84;25486;-44
2022/12/14 07:48:59;;;;;;;76.00;32.73;;;;;;;-10.12;85.57;100023.08;1691090;84;25536;-45
2022/12/14 07:51:34;;;;;;;61.77;25.10;;;;;;;-10.03;85.45;100022.49;1691274;84;25537;-47
2022/12/14 07:54:05;;;;;;;77.17;32.50;;;;;;;-9.91;85.65;100021.54;1691083;84;28051;-45
2022/12/14 07:56:37;;;;;;;71.53;32.35;;;;;;;-9.88;85.33;100012.83;1690965;84;25480;-46
2022/12/14 07:59:07;;;;;;;81.63;34.60;;;;;;;-9.77;85.92;100020.23;1691196;84;25565;-45
2022/12/14 08:01:37;;;;;;;89.83;35.13;;;;;;;-9.61;86.21;100018.39;1691036;84;25658;-48
2022/12/14 08:04:12;;;;;;;84.42;34.40;;;;;;;-9.47;86.55;100014.11;1691129;84;25641;-45
2022/12/14 08:06:41;;;;;;;81.47;35.30;;;;;;;-9.30;86.79;100022.05;1690456;84;27992;-45
2022/12/14 08:09:10;;;;;;;86.17;35.20;;;;;;;-9.15;86.30;100010.22;1691151;84;25554;-45
2022/12/14 08:11:39;;;;;;;91.05;37.48;;;;;;;-8.95;86.50;100016.97;1691080;84;25475;-45
2022/12/14 08:14:16;;;;;;;85.72;35.13;;;;;;;-8.73;86.88;100017.77;1667794;84;25588;-46
2022/12/14 08:16:46;;;;;;;86.70;36.63;;;;;;;-8.34;88.68;100020.82;1691101;84;25571;-46
2022/12/14 08:19:17;;;;;;;83.87;36.73;;;;;;;-8.09;87.48;100019.87;1691108;84;27849;-46
2022/12/14 08:21:45;;;;;;;90.92;37.00;;;;;;;-7.71;88.06;100012.92;1691029;84;25557;-45
2022/12/14 08:24:15;;;;;;;87.55;37.70;;;;;;;-7.36;88.83;100021.50;1691008;84;25485;-46
2022/12/14 08:26:43;;;;;;;83.72;36.48;;;;;;;-7.04;87.63;100009.16;1691071;84;25836;-46
2022/12/14 08:29:11;;;;;;;87.70;36.98;;;;;;;-6.74;87.84;100005.64;1691018;84;25403;-45
2022/12/14 08:31:38;;;;;;;83.67;34.48;;;;;;;-6.21;91.26;100000.84;1690976;84;29430;-47
2022/12/14 08:34:06;;;;;;;87.78;36.90;;;;;;;-5.70;90.99;100007.95;1690915;84;27185;-47
2022/12/14 08:36:34;;;;;;;88.17;40.38;;;;;;;-5.12;93.49;100004.92;1690965;84;25650;-48
2022/12/14 08:39:08;;;;;;;85.75;41.60;;;;;;;-4.75;91.70;100005.89;1691076;84;27526;-47
2022/12/14 08:41:36;;;;;;;84.87;36.08;;;;;;;-4.13;93.12;100014.38;1669566;84;25408;-46
2022/12/14 08:44:04;;;;;;;77.47;39.58;;;;;;;-3.61;91.21;100014.83;1690542;84;28039;-48
2022/12/14 08:46:36;;;;;;;82.72;38.20;;;;;;;-3.10;91.49;100011.42;1668914;85;25622;-49
2022/12/14 08:49:03;;;;;;;90.85;39.67;;;;;;;-2.59;90.68;100015.81;1689055;85;25570;-45
2022/12/14 08:51:31;;;;;;;86.47;39.48;;;;;;;-2.17;88.31;100017.58;1689026;85;25480;-46
2022/12/14 08:53:57;;;;;;;86.25;39.20;;;;;;;-1.79;86.96;100011.75;1689179;85;25416;-48
2022/12/14 08:56:26;;;;;;;78.52;37.23;;;;;;;-1.51;86.29;100008.88;1688984;85;27391;-48
2022/12/14 08:58:55;;;;;;;71.02;36.25;;;;;;;-1.00;85.65;100010.34;1689095;85;30127;-48
2022/12/14 09:01:27;;;;;;;80.07;39.78;;;;;;;-0.86;82.58;100006.84;1689158;85;25487;-46
2022/12/14 09:03:53;;;;;;;79.15;39.23;;;;;;;-0.63;81.94;100001.39;1689035;85;25587;-48
2022/12/14 09:06:26;;;;;;;84.30;39.23;;;;;;;-0.40;81.51;100007.04;1688019;85;25672;-48
2022/12/14 09:08:56;;;;;;;77.10;38.45;;;;;;;-0.29;79.15;100006.69;1687723;85;27343;-46
2022/12/14 09:11:24;;;;;;;76.77;39.38;;;;;;;-0.27;76.91;100013.09;1688950;85;25572;-48
2022/12/14 09:13:54;;;;;;;81.90;40.70;;;;;;;-0.21;76.09;100019.54;1688982;84;25534;-51
2022/12/14 09:16:25;;;;;;;78.12;38.98;;;;;;;-0.07;76.53;100009.39;1689099;85;25494;-49
2022/12/14 09:18:53;;;;;;;78.47;39.70;;;;;;;0.02;76.18;100003.63;1689022;85;25563;-46
2022/12/14 09:21:22;;;;;;;87.82;45.08;;;;;;;0.04;75.62;99998.36;1689008;85;27422;-48
2022/12/14 09:23:49;;;;;;;66.85;33.48;;;;;;;0.52;77.65;100004.78;1689219;85;25432;-46
2022/12/14 09:26:24;;;;;;;79.40;40.48;;;;;;;1.08;77.83;99997.89;1689031;85;25553;-48
2022/12/14 09:28:56;;;;;;;77.30;40.17;;;;;;;1.30;73.46;99985.02;1689041;85;25431;-49
2022/12/14 09:31:25;;;;;;;77.82;38.98;;;;;;;1.54;74.80;99984.66;1689087;85;25614;-47
2022/12/14 09:33:54;;;;;;;76.55;39.23;;;;;;;2.06;74.66;99982.58;1689127;85;27397;-48
2022/12/14 09:36:26;;;;;;;72.15;39.38;;;;;;;2.52;73.10;99980.59;1689021;85;25542;-46
2022/12/14 09:38:55;;;;;;;74.77;38.88;;;;;;;2.87;72.89;99977.73;1689117;85;25545;-46
2022/12/14 09:41:33;;;;;;;67.87;39.18;;;;;;;2.91;70.46;99978.80;1689162;85;25599;-49
2022/12/14 09:44:12;;;;;;;73.47;38.83;;;;;;;3.02;69.84;99979.63;1667468;84;25492;-47
2022/12/14 09:47:02;;;;;;;72.15;40.35;;;;;;;3.03;69.50;99971.87;1690924;84;27347;-48
2022/12/14 09:49:46;;;;;;;68.65;37.33;;;;;;;3.11;68.74;99964.12;1691055;84;25642;-45
2022/12/14 09:52:18;;;;;;;71.55;38.63;;;;;;;3.23;66.73;99974.55;1691204;84;25632;-46
2022/12/14 09:54:47;;;;;;;72.58;38.85;;;;;;;3.08;66.13;99967.34;1691224;84;25692;-46
2022/12/14 09:57:23;;;;;;;69.32;38.90;;;;;;;3.23;65.99;99964.39;1691307;84;25463;-48
2022/12/14 09:59:53;;;;;;;68.17;38.00;;;;;;;3.21;65.38;99969.22;1691223;84;27441;-48
2022/12/14 10:02:40;;;;;;;;;;;;;;;3.61;67.50;99957.68;1693633;84;25609;-47
2022/12/14 10:05:44;;;;;;;64.92;35.78;;;;;;;4.17;67.64;99949.20;1691196;84;25482;-49
2022/12/14 10:08:32;;;;;;;68.25;35.63;;;;;;;4.71;67.36;99956.96;1691089;84;25504;-48
2022/12/14 10:11:33;;;;;;;62.93;35.43;;;;;;;5.09;65.69;99955.88;1691369;84;25642;-47
2022/12/14 10:14:24;;;;;;;66.97;34.80;;;;;;;5.48;64.65;99950.98;1690787;84;27452;-49
2022/12/14 10:17:17;;;;;;;65.62;35.70;;;;;;;5.64;62.72;99946.29;1691045;84;27155;-49
2022/12/14 10:19:58;;;;;;;64.77;35.15;;;;;;;5.96;60.05;99941.13;1690644;84;25588;-47
2022/12/14 10:22:33;;;;;;;59.98;33.65;;;;;;;6.12;60.27;99938.25;1690252;84;26270;-47
2022/12/14 10:25:14;;;;;;;57.25;33.53;;;;;;;6.34;59.95;99935.81;1691190;84;25550;-47
2022/12/14 10:27:46;;;;;;;64.45;36.20;;;;;;;6.89;60.76;99937.19;1691236;84;27472;-46
2022/12/14 10:30:20;;;;;;;59.18;32.98;;;;;;;6.98;58.39;99925.21;1690178;84;27642;-49
2022/12/14 10:32:51;;;;;;;61.20;35.80;;;;;;;7.40;56.98;99922.88;1691156;84;25587;-46
2022/12/14 10:35:24;;;;;;;59.67;35.33;;;;;;;7.27;56.15;99919.61;1689861;84;25603;-49
2022/12/14 10:38:05;;;;;;;57.20;34.83;;;;;;;7.50;58.36;99919.22;1687888;84;25645;-46
2022/12/14 10:40:34;;;;;;;63.13;35.13;;;;;;;8.12;58.50;99914.80;1638676;87;27926;-47
2022/12/14 10:43:38;;;;;;;66.70;36.50;;;;;;;8.11;55.93;99914.53;1638672;87;25642;-46
2022/12/14 10:46:28;;;;;;;68.83;37.17;;;;;;;8.02;55.60;99909.06;1619726;87;25699;-48
2022/12/14 10:49:03;;;;;;;;;;;;;;;7.44;53.89;99906.94;1598376;89;25656;-50
2022/12/14 10:51:45;;;;;;;70.90;37.33;;;;;;;7.40;53.54;99901.36;1614446;88;25625;-46
2022/12/14 10:54:29;;;;;;;67.12;38.48;;;;;;;7.45;54.34;99897.22;1603835;89;27517;-48
2022/12/14 10:56:57;;;;;;;68.28;36.83;;;;;;;7.61;55.22;99886.17;1594165;90;25669;-49
2022/12/14 10:59:32;;;;;;;65.70;39.73;;;;;;;7.88;55.31;99880.53;1594063;90;25568;-48
2022/12/14 11:02:15;;;;;;;66.82;37.60;;;;;;;7.97;55.03;99880.88;1594212;90;25678;-47
2022/12/14 11:04:54;;;;;;;67.78;37.17;;;;;;;7.97;55.33;99873.36;1613587;88;25596;-49
2022/12/14 11:07:26;;;;;;;67.45;37.88;;;;;;;7.89;54.51;99871.37;1587680;90;27351;-48
2022/12/14 11:09:53;;;;;;;68.15;37.30;;;;;;;7.81;54.13;99858.84;1588769;88;25914;-46
2022/12/14 11:12:28;;;;;;;68.07;38.53;;;;;;;7.76;53.80;99857.59;1587561;90;25691;-48
2022/12/14 11:15:02;;;;;;;67.80;37.45;;;;;;;7.62;54.29;99850.88;1603794;89;25841;-47
2022/12/14 11:17:38;;;;;;;66.53;38.48;;;;;;;7.47;52.89;99852.00;1624667;87;25656;-50
2022/12/14 11:20:21;;;;;;;72.40;40.43;;;;;;;7.34;53.40;99844.71;1648258;87;27425;-49
2022/12/14 11:22:55;;;;;;;67.45;37.50;;;;;;;7.19;53.13;99839.06;1648126;87;25586;-48
2022/12/14 11:25:42;;;;;;;68.72;38.78;;;;;;;6.68;52.68;99846.11;1648183;87;25565;-47
2022/12/14 11:28:29;;;;;;;64.82;38.40;;;;;;;6.50;53.41;99844.24;1647950;87;25869;-46
2022/12/14 11:31:07;;;;;;;76.92;43.40;;;;;;;6.29;54.22;99843.77;1648196;87;25575;-47
2022/12/14 11:33:51;;;;;;;85.20;44.15;;;;;;;6.38;54.81;99837.97;1648226;87;28245;-46
2022/12/14 11:36:40;;;;;;;69.80;38.88;;;;;;;6.45;54.98;99834.92;1644723;87;25719;-47
2022/12/14 11:39:15;;;;;;;70.30;39.20;;;;;;;6.49;54.15;99829.23;1648258;87;25594;-48
2022/12/14 11:41:51;;;;;;;67.58;38.05;;;;;;;6.40;53.99;99830.41;1648190;87;25492;-49
2022/12/14 11:44:27;;;;;;;70.52;39.85;;;;;;;6.16;51.82;99818.42;1646533;87;25432;-49
2022/12/14 11:47:01;;;;;;;67.82;37.58;;;;;;;5.47;52.66;99819.30;1639919;87;28012;-48
2022/12/14 11:49:43;;;;;;;74.07;39.53;;;;;;;5.20;53.29;99806.70;1683109;85;25508;-46
2022/12/14 11:52:20;;;;;;;64.62;37.67;;;;;;;5.12;54.29;99797.94;1683870;85;25458;-49
2022/12/14 11:54:55;;;;;;;66.80;36.35;;;;;;;4.53;52.92;99799.84;1683468;85;25526;-49
2022/12/14 11:57:48;;;;;;;63.08;35.30;;;;;;;4.32;53.89;99800.52;1638531;85;25434;-47
2022/12/14 12:00:28;;;;;;;61.55;33.90;;;;;;;4.32;54.76;99797.84;1684698;85;27377;-47